sensor_id;sensor_type;location;lat;lon;timestamp;pressure;altitude;pressure_sealevel;temperature;humidity
80164;BME280;70071;55.130;61.268;2024-02-28T00:00:30;100232.25;;;4.15;12.73
80164;BME280;70071;55.130;61.268;2024-02-28T00:02:56;100164.75;;;3.80;12.59
80164;BME280;70071;55.130;61.268;2024-02-28T00:05:22;100174.94;;;4.20;13.46
80164;BME280;70071;55.130;61.268;2024-02-28T00:07:48;100222.78;;;4.37;12.65
80164;BME280;70071;55.130;61.268;2024-02-28T00:10:14;100140.25;;;3.68;13.58
80164;BME280;70071;55.130;61.268;2024-02-28T00:12:40;100205.38;;;4.12;13.43
80164;BME280;70071;55.130;61.268;2024-02-28T00:15:06;100247.19;;;4.39;13.83
80164;BME280;70071;55.130;61.268;2024-02-28T00:17:40;100245.50;;;4.38;13.43
80164;BME280;70071;55.130;61.268;2024-02-28T00:20:08;100236.59;;;4.27;13.77
80164;BME280;70071;55.130;61.268;2024-02-28T00:22:36;100243.59;;;4.40;13.03
80164;BME280;70071;55.130;61.268;2024-02-28T00:25:05;100154.81;;;3.97;13.18
80164;BME280;70071;55.130;61.268;2024-02-28T00:27:32;100251.59;;;4.38;13.82
80164;BME280;70071;55.130;61.268;2024-02-28T00:29:59;100240.84;;;4.41;13.72
80164;BME280;70071;55.130;61.268;2024-02-28T00:32:25;100187.81;;;4.12;14.06
80164;BME280;70071;55.130;61.268;2024-02-28T00:34:51;100169.91;;;4.06;13.82
80164;BME280;70071;55.130;61.268;2024-02-28T00:37:17;100235.78;;;4.62;13.63
80164;BME280;70071;55.130;61.268;2024-02-28T00:39:45;100155.88;;;4.30;13.51
80164;BME280;70071;55.130;61.268;2024-02-28T00:42:11;100221.38;;;4.44;13.52
80164;BME280;70071;55.130;61.268;2024-02-28T00:44:37;100188.44;;;4.62;13.86
80164;BME280;70071;55.130;61.268;2024-02-28T00:47:03;100183.66;;;4.56;13.39
80164;BME280;70071;55.130;61.268;2024-02-28T00:49:29;100228.88;;;4.73;13.80
80164;BME280;70071;55.130;61.268;2024-02-28T00:51:55;100201.75;;;4.37;13.58
80164;BME280;70071;55.130;61.268;2024-02-28T00:54:21;100155.75;;;4.31;13.39
80164;BME280;70071;55.130;61.268;2024-02-28T00:56:49;100218.31;;;4.61;13.96
80164;BME280;70071;55.130;61.268;2024-02-28T00:59:15;100201.38;;;4.66;13.46
80164;BME280;70071;55.130;61.268;2024-02-28T01:01:41;100204.75;;;4.79;14.25
80164;BME280;70071;55.130;61.268;2024-02-28T01:04:07;100239.81;;;5.02;14.24
80164;BME280;70071;55.130;61.268;2024-02-28T01:06:33;100156.56;;;4.56;14.32
80164;BME280;70071;55.130;61.268;2024-02-28T01:08:59;100219.41;;;4.70;14.22
80164;BME280;70071;55.130;61.268;2024-02-28T01:11:25;100163.50;;;4.21;14.58
80164;BME280;70071;55.130;61.268;2024-02-28T01:13:51;100223.91;;;4.57;14.34
80164;BME280;70071;55.130;61.268;2024-02-28T01:16:17;100201.06;;;4.35;13.83
80164;BME280;70071;55.130;61.268;2024-02-28T01:18:43;100145.03;;;3.99;14.27
80164;BME280;70071;55.130;61.268;2024-02-28T01:21:09;100235.28;;;4.57;14.24
80164;BME280;70071;55.130;61.268;2024-02-28T01:23:35;100136.91;;;4.02;14.50
80164;BME280;70071;55.130;61.268;2024-02-28T01:26:01;100230.63;;;4.61;14.50
80164;BME280;70071;55.130;61.268;2024-02-28T01:28:29;100139.06;;;3.97;13.91
80164;BME280;70071;55.130;61.268;2024-02-28T01:30:55;100190.13;;;4.17;14.80
80164;BME280;70071;55.130;61.268;2024-02-28T01:33:21;100191.34;;;4.00;14.13
80164;BME280;70071;55.130;61.268;2024-02-28T01:35:47;100122.94;;;3.42;15.13
80164;BME280;70071;55.130;61.268;2024-02-28T01:38:13;100148.59;;;3.98;14.20
80164;BME280;70071;55.130;61.268;2024-02-28T01:40:44;100165.34;;;4.08;15.21
80164;BME280;70071;55.130;61.268;2024-02-28T01:43:11;100164.41;;;4.09;15.09
80164;BME280;70071;55.130;61.268;2024-02-28T01:45:37;100195.13;;;4.20;14.58
80164;BME280;70071;55.130;61.268;2024-02-28T01:48:04;100165.88;;;4.13;15.01
80164;BME280;70071;55.130;61.268;2024-02-28T01:50:32;100130.06;;;3.88;15.21
80164;BME280;70071;55.130;61.268;2024-02-28T01:52:58;100214.22;;;4.46;15.37
80164;BME280;70071;55.130;61.268;2024-02-28T01:55:25;100230.66;;;4.37;15.09
80164;BME280;70071;55.130;61.268;2024-02-28T01:57:52;100148.66;;;4.09;15.64
80164;BME280;70071;55.130;61.268;2024-02-28T02:00:19;100193.94;;;4.59;15.01
80164;BME280;70071;55.130;61.268;2024-02-28T02:02:47;100172.78;;;4.14;15.76
80164;BME280;70071;55.130;61.268;2024-02-28T02:05:15;100192.38;;;4.10;15.21
80164;BME280;70071;55.130;61.268;2024-02-28T02:07:44;100174.50;;;4.02;14.72
80164;BME280;70071;55.130;61.268;2024-02-28T02:10:10;100200.06;;;4.24;14.88
80164;BME280;70071;55.130;61.268;2024-02-28T02:12:38;100207.59;;;4.05;15.52
80164;BME280;70071;55.130;61.268;2024-02-28T02:15:05;100110.09;;;3.74;15.72
80164;BME280;70071;55.130;61.268;2024-02-28T02:17:31;100176.03;;;4.18;15.24
80164;BME280;70071;55.130;61.268;2024-02-28T02:19:58;100123.44;;;3.71;15.37
80164;BME280;70071;55.130;61.268;2024-02-28T02:22:27;100117.97;;;3.74;16.07
80164;BME280;70071;55.130;61.268;2024-02-28T02:24:55;100113.38;;;3.41;15.39
80164;BME280;70071;55.130;61.268;2024-02-28T02:27:24;100121.31;;;3.15;15.35
80164;BME280;70071;55.130;61.268;2024-02-28T02:29:51;100197.84;;;3.83;15.39
80164;BME280;70071;55.130;61.268;2024-02-28T02:32:17;100202.75;;;3.63;16.11
80164;BME280;70071;55.130;61.268;2024-02-28T02:34:43;100113.72;;;3.36;15.10
80164;BME280;70071;55.130;61.268;2024-02-28T02:37:09;100089.03;;;3.14;15.59
80164;BME280;70071;55.130;61.268;2024-02-28T02:39:35;100125.22;;;3.46;15.43
80164;BME280;70071;55.130;61.268;2024-02-28T02:42:01;100167.38;;;3.80;15.48
80164;BME280;70071;55.130;61.268;2024-02-28T02:44:27;100115.78;;;3.68;15.98
80164;BME280;70071;55.130;61.268;2024-02-28T02:46:53;100150.56;;;4.07;15.87
80164;BME280;70071;55.130;61.268;2024-02-28T02:49:18;100145.19;;;4.08;15.87
80164;BME280;70071;55.130;61.268;2024-02-28T02:51:44;100182.78;;;4.44;15.65
80164;BME280;70071;55.130;61.268;2024-02-28T02:54:11;100149.19;;;4.25;16.98
80164;BME280;70071;55.130;61.268;2024-02-28T02:56:37;100167.47;;;4.27;17.83
80164;BME280;70071;55.130;61.268;2024-02-28T02:59:03;100073.56;;;3.71;17.82
80164;BME280;70071;55.130;61.268;2024-02-28T03:01:29;100132.72;;;3.99;18.87
80164;BME280;70071;55.130;61.268;2024-02-28T03:03:54;100192.72;;;4.41;18.28
80164;BME280;70071;55.130;61.268;2024-02-28T03:06:20;100210.06;;;4.55;17.85
80164;BME280;70071;55.130;61.268;2024-02-28T03:08:49;100212.56;;;4.56;18.20
80164;BME280;70071;55.130;61.268;2024-02-28T03:11:15;100201.59;;;4.51;16.78
80164;BME280;70071;55.130;61.268;2024-02-28T03:13:41;100210.66;;;4.58;17.38
80164;BME280;70071;55.130;61.268;2024-02-28T03:16:07;100135.06;;;4.15;16.59
80164;BME280;70071;55.130;61.268;2024-02-28T03:18:33;100106.91;;;3.93;17.24
80164;BME280;70071;55.130;61.268;2024-02-28T03:20:59;100190.59;;;4.57;16.51
80164;BME280;70071;55.130;61.268;2024-02-28T03:23:25;100119.72;;;3.98;16.55
80164;BME280;70071;55.130;61.268;2024-02-28T03:25:51;100212.34;;;4.59;16.44
80164;BME280;70071;55.130;61.268;2024-02-28T03:28:17;100147.50;;;4.24;16.26
80164;BME280;70071;55.130;61.268;2024-02-28T03:30:43;100134.03;;;3.94;17.11
80164;BME280;70071;55.130;61.268;2024-02-28T03:33:09;100140.91;;;3.83;16.13
80164;BME280;70071;55.130;61.268;2024-02-28T03:35:35;100205.53;;;4.21;16.93
80164;BME280;70071;55.130;61.268;2024-02-28T03:38:01;100133.97;;;3.82;16.57
80164;BME280;70071;55.130;61.268;2024-02-28T03:40:27;100139.06;;;3.97;16.45
80164;BME280;70071;55.130;61.268;2024-02-28T03:42:52;100196.84;;;4.32;17.06
80164;BME280;70071;55.130;61.268;2024-02-28T03:45:19;100129.72;;;3.92;16.90
80164;BME280;70071;55.130;61.268;2024-02-28T03:47:45;100179.72;;;4.15;16.74
80164;BME280;70071;55.130;61.268;2024-02-28T03:50:11;100144.13;;;4.11;17.05
80164;BME280;70071;55.130;61.268;2024-02-28T03:52:37;100186.81;;;4.26;16.90
80164;BME280;70071;55.130;61.268;2024-02-28T03:55:03;100079.28;;;3.41;16.74
80164;BME280;70071;55.130;61.268;2024-02-28T03:57:29;100070.59;;;3.51;17.38
80164;BME280;70071;55.130;61.268;2024-02-28T03:59:55;100174.13;;;3.96;16.99
80164;BME280;70071;55.130;61.268;2024-02-28T04:02:22;100130.84;;;3.77;17.03
80164;BME280;70071;55.130;61.268;2024-02-28T04:04:48;100177.69;;;4.19;16.85
80164;BME280;70071;55.130;61.268;2024-02-28T04:07:13;100152.91;;;3.99;17.04
80164;BME280;70071;55.130;61.268;2024-02-28T04:09:39;100203.34;;;4.39;17.02
80164;BME280;70071;55.130;61.268;2024-02-28T04:12:05;100125.97;;;3.84;17.37
80164;BME280;70071;55.130;61.268;2024-02-28T04:14:31;100089.88;;;3.39;16.96
80164;BME280;70071;55.130;61.268;2024-02-28T04:16:57;100186.09;;;4.00;17.10
80164;BME280;70071;55.130;61.268;2024-02-28T04:19:23;100180.94;;;4.22;16.76
80164;BME280;70071;55.130;61.268;2024-02-28T04:21:49;100142.19;;;4.02;16.82
80164;BME280;70071;55.130;61.268;2024-02-28T04:24:15;100117.56;;;3.67;17.49
80164;BME280;70071;55.130;61.268;2024-02-28T04:26:41;100169.22;;;3.91;17.23
80164;BME280;70071;55.130;61.268;2024-02-28T04:29:07;100122.41;;;3.85;17.10
80164;BME280;70071;55.130;61.268;2024-02-28T04:31:39;100070.72;;;3.74;17.48
80164;BME280;70071;55.130;61.268;2024-02-28T04:34:07;100190.66;;;4.33;17.33
80164;BME280;70071;55.130;61.268;2024-02-28T04:36:33;100113.50;;;3.99;17.96
80164;BME280;70071;55.130;61.268;2024-02-28T04:38:59;100179.22;;;4.45;16.74
80164;BME280;70071;55.130;61.268;2024-02-28T04:41:27;100159.19;;;4.56;17.60
80164;BME280;70071;55.130;61.268;2024-02-28T04:43:53;100149.50;;;4.56;17.20
80164;BME280;70071;55.130;61.268;2024-02-28T04:46:19;100167.06;;;4.67;16.82
80164;BME280;70071;55.130;61.268;2024-02-28T04:48:45;100196.63;;;4.82;16.90
80164;BME280;70071;55.130;61.268;2024-02-28T04:51:15;100123.63;;;4.16;16.83
80164;BME280;70071;55.130;61.268;2024-02-28T04:53:43;100092.78;;;4.18;16.68
80164;BME280;70071;55.130;61.268;2024-02-28T04:56:09;100089.72;;;4.24;17.54
80164;BME280;70071;55.130;61.268;2024-02-28T04:58:36;100133.00;;;4.54;17.15
80164;BME280;70071;55.130;61.268;2024-02-28T05:01:02;100151.75;;;4.61;17.71
80164;BME280;70071;55.130;61.268;2024-02-28T05:03:29;100173.06;;;4.80;17.72
80164;BME280;70071;55.130;61.268;2024-02-28T05:05:55;100129.56;;;4.65;17.50
80164;BME280;70071;55.130;61.268;2024-02-28T05:08:21;100143.03;;;4.49;17.00
80164;BME280;70071;55.130;61.268;2024-02-28T05:10:47;100191.91;;;4.52;17.13
80164;BME280;70071;55.130;61.268;2024-02-28T05:13:13;100079.16;;;3.05;18.67
80164;BME280;70071;55.130;61.268;2024-02-28T05:15:39;100097.19;;;2.34;19.12
80164;BME280;70071;55.130;61.268;2024-02-28T05:18:04;100138.69;;;2.00;19.84
80164;BME280;70071;55.130;61.268;2024-02-28T05:20:31;100096.19;;;2.09;20.27
80164;BME280;70071;55.130;61.268;2024-02-28T05:22:57;100126.94;;;2.20;19.85
80164;BME280;70071;55.130;61.268;2024-02-28T05:25:22;100177.22;;;2.25;20.56
80164;BME280;70071;55.130;61.268;2024-02-28T05:27:48;100102.03;;;1.87;20.03
80164;BME280;70071;55.130;61.268;2024-02-28T05:30:14;100172.19;;;2.35;19.92
80164;BME280;70071;55.130;61.268;2024-02-28T05:32:40;100049.28;;;1.53;20.17
80164;BME280;70071;55.130;61.268;2024-02-28T05:35:07;100177.09;;;2.40;20.28
80164;BME280;70071;55.130;61.268;2024-02-28T05:37:33;100175.56;;;2.37;19.97
80164;BME280;70071;55.130;61.268;2024-02-28T05:40:00;100183.13;;;3.19;19.38
80164;BME280;70071;55.130;61.268;2024-02-28T05:42:26;100141.56;;;3.50;19.56
80164;BME280;70071;55.130;61.268;2024-02-28T05:44:52;100137.50;;;3.70;19.09
80164;BME280;70071;55.130;61.268;2024-02-28T05:47:19;100125.31;;;3.69;18.52
80164;BME280;70071;55.130;61.268;2024-02-28T05:49:48;100165.94;;;3.76;18.51
80164;BME280;70071;55.130;61.268;2024-02-28T05:52:25;100134.16;;;3.68;19.30
80164;BME280;70071;55.130;61.268;2024-02-28T05:54:51;100148.69;;;4.90;17.90
80164;BME280;70071;55.130;61.268;2024-02-28T05:57:17;100208.31;;;5.57;18.00
80164;BME280;70071;55.130;61.268;2024-02-28T05:59:43;100206.03;;;5.75;16.88
80164;BME280;70071;55.130;61.268;2024-02-28T06:02:10;100120.03;;;5.53;17.22
80164;BME280;70071;55.130;61.268;2024-02-28T06:04:36;100181.47;;;5.97;17.06
80164;BME280;70071;55.130;61.268;2024-02-28T06:07:02;100181.72;;;6.48;16.69
80164;BME280;70071;55.130;61.268;2024-02-28T06:09:28;100079.22;;;5.80;16.60
80164;BME280;70071;55.130;61.268;2024-02-28T06:11:54;100110.25;;;6.30;16.28
80164;BME280;70071;55.130;61.268;2024-02-28T06:14:20;100146.25;;;6.62;16.12
80164;BME280;70071;55.130;61.268;2024-02-28T06:16:49;100183.25;;;6.92;16.23
80164;BME280;70071;55.130;61.268;2024-02-28T06:19:15;100147.28;;;7.01;16.56
80164;BME280;70071;55.130;61.268;2024-02-28T06:21:41;100184.09;;;7.03;15.51
80164;BME280;70071;55.130;61.268;2024-02-28T06:24:07;100143.81;;;7.01;15.79
80164;BME280;70071;55.130;61.268;2024-02-28T06:26:33;100116.81;;;6.87;15.31
80164;BME280;70071;55.130;61.268;2024-02-28T06:29:00;100115.22;;;7.06;15.42
80164;BME280;70071;55.130;61.268;2024-02-28T06:31:30;100144.19;;;7.27;15.19
80164;BME280;70071;55.130;61.268;2024-02-28T06:33:57;100175.31;;;7.33;15.14
80164;BME280;70071;55.130;61.268;2024-02-28T06:36:23;100110.78;;;7.06;14.60
80164;BME280;70071;55.130;61.268;2024-02-28T06:38:49;100143.00;;;7.00;13.94
80164;BME280;70071;55.130;61.268;2024-02-28T06:41:16;100160.94;;;7.47;14.01
80164;BME280;70071;55.130;61.268;2024-02-28T06:43:42;100096.38;;;7.30;14.41
80164;BME280;70071;55.130;61.268;2024-02-28T06:46:08;100163.19;;;7.61;14.27
80164;BME280;70071;55.130;61.268;2024-02-28T06:48:35;100105.63;;;7.45;13.71
80164;BME280;70071;55.130;61.268;2024-02-28T06:51:01;100119.34;;;7.39;13.94
80164;BME280;70071;55.130;61.268;2024-02-28T06:53:27;100158.28;;;7.06;13.89
80164;BME280;70071;55.130;61.268;2024-02-28T06:55:53;100055.97;;;6.79;14.22
80164;BME280;70071;55.130;61.268;2024-02-28T06:58:19;100134.75;;;7.24;14.46
80164;BME280;70071;55.130;61.268;2024-02-28T07:00:46;100130.13;;;7.17;14.09
80164;BME280;70071;55.130;61.268;2024-02-28T07:03:13;100159.88;;;7.28;14.23
80164;BME280;70071;55.130;61.268;2024-02-28T07:05:39;100148.06;;;8.03;14.24
80164;BME280;70071;55.130;61.268;2024-02-28T07:08:05;100176.94;;;7.65;13.85
80164;BME280;70071;55.130;61.268;2024-02-28T07:10:31;100151.75;;;7.10;13.62
80164;BME280;70071;55.130;61.268;2024-02-28T07:12:57;100064.44;;;6.83;13.64
80164;BME280;70071;55.130;61.268;2024-02-28T07:15:23;100096.66;;;7.27;13.86
80164;BME280;70071;55.130;61.268;2024-02-28T07:17:49;100148.59;;;7.77;13.77
80164;BME280;70071;55.130;61.268;2024-02-28T07:20:15;100146.50;;;7.71;13.39
80164;BME280;70071;55.130;61.268;2024-02-28T07:22:42;100150.97;;;7.80;14.18
80164;BME280;70071;55.130;61.268;2024-02-28T07:25:09;100102.00;;;8.05;14.27
80164;BME280;70071;55.130;61.268;2024-02-28T07:27:35;100148.19;;;7.72;13.48
80164;BME280;70071;55.130;61.268;2024-02-28T07:30:01;100137.72;;;8.29;14.06
80164;BME280;70071;55.130;61.268;2024-02-28T07:32:31;100111.47;;;8.08;14.26
80164;BME280;70071;55.130;61.268;2024-02-28T07:35:01;100143.16;;;8.37;14.44
80164;BME280;70071;55.130;61.268;2024-02-28T07:37:30;100020.59;;;8.09;13.75
80164;BME280;70071;55.130;61.268;2024-02-28T07:39:57;100062.63;;;8.22;13.79
80164;BME280;70071;55.130;61.268;2024-02-28T07:42:23;100004.97;;;7.49;13.65
80164;BME280;70071;55.130;61.268;2024-02-28T07:44:48;100077.94;;;7.89;14.19
80164;BME280;70071;55.130;61.268;2024-02-28T07:47:19;100117.19;;;8.80;14.03
80164;BME280;70071;55.130;61.268;2024-02-28T07:49:45;100083.41;;;9.19;14.79
80164;BME280;70071;55.130;61.268;2024-02-28T07:52:11;100008.38;;;8.08;13.44
80164;BME280;70071;55.130;61.268;2024-02-28T07:54:37;100114.03;;;9.04;14.40
80164;BME280;70071;55.130;61.268;2024-02-28T07:57:03;100116.38;;;9.07;13.91
80164;BME280;70071;55.130;61.268;2024-02-28T07:59:30;100098.50;;;8.44;13.72
80164;BME280;70071;55.130;61.268;2024-02-28T08:01:56;100126.28;;;8.67;13.45
80164;BME280;70071;55.130;61.268;2024-02-28T08:04:22;100060.56;;;7.96;13.57
80164;BME280;70071;55.130;61.268;2024-02-28T08:06:48;100083.53;;;8.62;13.53
80164;BME280;70071;55.130;61.268;2024-02-28T08:09:14;100052.56;;;8.25;13.31
80164;BME280;70071;55.130;61.268;2024-02-28T08:11:41;100099.19;;;8.83;13.67
80164;BME280;70071;55.130;61.268;2024-02-28T08:14:07;100043.03;;;8.62;14.03
80164;BME280;70071;55.130;61.268;2024-02-28T08:16:33;100068.53;;;8.91;13.51
80164;BME280;70071;55.130;61.268;2024-02-28T08:18:59;100022.13;;;8.11;14.29
80164;BME280;70071;55.130;61.268;2024-02-28T08:21:25;100079.28;;;9.35;13.98
80164;BME280;70071;55.130;61.268;2024-02-28T08:23:52;100088.47;;;9.76;14.24
80164;BME280;70071;55.130;61.268;2024-02-28T08:26:18;100041.56;;;9.05;13.69
80164;BME280;70071;55.130;61.268;2024-02-28T08:28:44;100070.13;;;9.47;13.67
80164;BME280;70071;55.130;61.268;2024-02-28T08:31:10;100092.16;;;9.84;13.33
80164;BME280;70071;55.130;61.268;2024-02-28T08:33:36;100105.56;;;9.46;13.40
80164;BME280;70071;55.130;61.268;2024-02-28T08:36:02;100102.47;;;9.87;13.88
80164;BME280;70071;55.130;61.268;2024-02-28T08:38:28;100079.25;;;8.51;13.37
80164;BME280;70071;55.130;61.268;2024-02-28T08:40:54;100096.25;;;9.42;13.08
80164;BME280;70071;55.130;61.268;2024-02-28T08:43:20;99996.56;;;8.77;13.73
80164;BME280;70071;55.130;61.268;2024-02-28T08:45:45;100029.34;;;9.22;13.83
80164;BME280;70071;55.130;61.268;2024-02-28T08:48:11;100063.16;;;9.82;13.21
80164;BME280;70071;55.130;61.268;2024-02-28T08:50:38;100102.31;;;9.52;13.61
80164;BME280;70071;55.130;61.268;2024-02-28T08:53:04;100014.34;;;8.10;13.63
80164;BME280;70071;55.130;61.268;2024-02-28T08:55:31;100048.59;;;8.68;12.80
80164;BME280;70071;55.130;61.268;2024-02-28T08:57:57;100057.66;;;7.60;13.43
80164;BME280;70071;55.130;61.268;2024-02-28T09:00:23;100051.25;;;7.43;14.72
80164;BME280;70071;55.130;61.268;2024-02-28T09:02:49;100053.88;;;8.68;15.05
80164;BME280;70071;55.130;61.268;2024-02-28T09:05:15;100019.41;;;7.83;14.05
80164;BME280;70071;55.130;61.268;2024-02-28T09:07:40;100066.41;;;7.90;13.81
80164;BME280;70071;55.130;61.268;2024-02-28T09:10:07;100043.63;;;7.40;13.94
80164;BME280;70071;55.130;61.268;2024-02-28T09:12:33;100047.03;;;8.09;14.58
80164;BME280;70071;55.130;61.268;2024-02-28T09:15:00;100056.41;;;8.88;14.15
80164;BME280;70071;55.130;61.268;2024-02-28T09:17:26;100004.72;;;8.66;14.84
80164;BME280;70071;55.130;61.268;2024-02-28T09:19:52;100037.25;;;8.76;14.03
80164;BME280;70071;55.130;61.268;2024-02-28T09:22:19;100005.00;;;8.63;13.96
80164;BME280;70071;55.130;61.268;2024-02-28T09:24:46;100021.56;;;9.38;14.05
80164;BME280;70071;55.130;61.268;2024-02-28T09:27:13;100065.97;;;9.27;14.01
80164;BME280;70071;55.130;61.268;2024-02-28T09:29:39;100065.84;;;9.46;14.60
80164;BME280;70071;55.130;61.268;2024-02-28T09:32:05;100068.69;;;9.35;13.31
80164;BME280;70071;55.130;61.268;2024-02-28T09:34:31;100009.22;;;8.83;12.85
80164;BME280;70071;55.130;61.268;2024-02-28T09:36:57;100015.31;;;8.66;12.52
80164;BME280;70071;55.130;61.268;2024-02-28T09:39:23;99995.63;;;9.50;13.37
80164;BME280;70071;55.130;61.268;2024-02-28T09:41:49;100034.47;;;10.48;12.32
80164;BME280;70071;55.130;61.268;2024-02-28T09:44:16;100065.06;;;10.60;12.14
80164;BME280;70071;55.130;61.268;2024-02-28T09:46:42;100065.88;;;10.08;11.41
80164;BME280;70071;55.130;61.268;2024-02-28T09:49:09;100012.69;;;9.30;12.23
80164;BME280;70071;55.130;61.268;2024-02-28T09:51:36;100017.59;;;9.06;12.64
80164;BME280;70071;55.130;61.268;2024-02-28T09:54:03;100056.72;;;9.85;12.16
80164;BME280;70071;55.130;61.268;2024-02-28T09:56:31;100023.50;;;9.72;13.04
80164;BME280;70071;55.130;61.268;2024-02-28T09:58:57;100054.16;;;10.19;12.76
80164;BME280;70071;55.130;61.268;2024-02-28T10:01:25;100002.69;;;10.04;12.37
80164;BME280;70071;55.130;61.268;2024-02-28T10:03:52;100057.78;;;10.36;11.84
80164;BME280;70071;55.130;61.268;2024-02-28T10:06:19;100017.59;;;11.08;11.30
80164;BME280;70071;55.130;61.268;2024-02-28T10:08:46;100045.53;;;10.70;12.02
80164;BME280;70071;55.130;61.268;2024-02-28T10:11:23;100034.81;;;10.88;11.06
80164;BME280;70071;55.130;61.268;2024-02-28T10:13:50;99982.41;;;10.21;11.40
80164;BME280;70071;55.130;61.268;2024-02-28T10:16:16;100038.97;;;10.90;11.79
80164;BME280;70071;55.130;61.268;2024-02-28T10:18:43;100022.50;;;10.44;11.56
80164;BME280;70071;55.130;61.268;2024-02-28T10:21:10;100032.88;;;11.06;11.92
80164;BME280;70071;55.130;61.268;2024-02-28T10:23:38;100017.69;;;11.33;11.57
80164;BME280;70071;55.130;61.268;2024-02-28T10:26:05;99948.91;;;11.38;10.92
80164;BME280;70071;55.130;61.268;2024-02-28T10:28:31;99994.91;;;11.88;11.37
80164;BME280;70071;55.130;61.268;2024-02-28T10:30:57;99998.22;;;11.73;10.80
80164;BME280;70071;55.130;61.268;2024-02-28T10:33:26;100003.06;;;12.19;11.13
80164;BME280;70071;55.130;61.268;2024-02-28T10:35:54;100019.63;;;13.17;11.53
80164;BME280;70071;55.130;61.268;2024-02-28T10:38:22;100004.94;;;12.90;11.01
80164;BME280;70071;55.130;61.268;2024-02-28T10:40:49;99934.13;;;12.72;10.39
80164;BME280;70071;55.130;61.268;2024-02-28T10:43:16;99998.72;;;13.06;10.90
80164;BME280;70071;55.130;61.268;2024-02-28T10:45:45;99974.41;;;13.24;11.33
80164;BME280;70071;55.130;61.268;2024-02-28T10:48:14;99975.25;;;13.71;9.96
80164;BME280;70071;55.130;61.268;2024-02-28T10:50:44;100000.19;;;14.75;11.52
80164;BME280;70071;55.130;61.268;2024-02-28T10:53:13;99963.84;;;15.61;10.81
80164;BME280;70071;55.130;61.268;2024-02-28T10:55:41;99993.88;;;14.98;9.88
80164;BME280;70071;55.130;61.268;2024-02-28T10:58:08;99984.44;;;14.36;10.03
80164;BME280;70071;55.130;61.268;2024-02-28T11:00:41;99999.91;;;15.22;9.71
80164;BME280;70071;55.130;61.268;2024-02-28T11:03:08;100003.00;;;15.25;10.25
80164;BME280;70071;55.130;61.268;2024-02-28T11:05:37;99990.41;;;15.84;9.45
80164;BME280;70071;55.130;61.268;2024-02-28T11:08:09;99968.56;;;15.37;10.07
80164;BME280;70071;55.130;61.268;2024-02-28T11:10:43;99996.66;;;15.48;10.24
80164;BME280;70071;55.130;61.268;2024-02-28T11:13:10;99977.44;;;14.65;9.71
80164;BME280;70071;55.130;61.268;2024-02-28T11:15:46;99975.84;;;15.43;9.90
80164;BME280;70071;55.130;61.268;2024-02-28T11:18:12;99996.03;;;15.24;9.80
80164;BME280;70071;55.130;61.268;2024-02-28T11:20:38;99987.78;;;15.04;9.83
80164;BME280;70071;55.130;61.268;2024-02-28T11:23:08;99946.25;;;14.65;10.02
80164;BME280;70071;55.130;61.268;2024-02-28T11:25:35;99996.59;;;13.24;10.75
80164;BME280;70071;55.130;61.268;2024-02-28T11:28:01;99967.03;;;14.55;10.60
80164;BME280;70071;55.130;61.268;2024-02-28T11:30:27;99972.22;;;14.71;10.42
80164;BME280;70071;55.130;61.268;2024-02-28T11:32:54;99987.00;;;15.10;10.67
80164;BME280;70071;55.130;61.268;2024-02-28T11:36:46;99992.06;;;14.24;11.35
80164;BME280;70071;55.130;61.268;2024-02-28T11:40:13;99931.91;;;13.54;11.78
80164;BME280;70071;55.130;61.268;2024-02-28T11:43:06;99990.53;;;13.07;11.85
80164;BME280;70071;55.130;61.268;2024-02-28T11:48:29;99912.25;;;13.08;12.31
80164;BME280;70071;55.130;61.268;2024-02-28T11:50:59;99965.47;;;14.16;12.23
80164;BME280;70071;55.130;61.268;2024-02-28T11:53:48;99991.63;;;13.67;12.17
80164;BME280;70071;55.130;61.268;2024-02-28T11:56:14;99894.31;;;13.48;12.17
80164;BME280;70071;55.130;61.268;2024-02-28T11:58:53;99959.41;;;14.22;11.92
80164;BME280;70071;55.130;61.268;2024-02-28T12:01:36;99994.25;;;13.53;12.39
80164;BME280;70071;55.130;61.268;2024-02-28T12:04:04;99951.09;;;14.47;12.74
80164;BME280;70071;55.130;61.268;2024-02-28T12:06:37;99953.59;;;14.03;12.71
80164;BME280;70071;55.130;61.268;2024-02-28T12:09:05;99980.25;;;13.89;11.92
80164;BME280;70071;55.130;61.268;2024-02-28T12:11:32;99970.38;;;14.27;12.38
80164;BME280;70071;55.130;61.268;2024-02-28T12:13:58;99968.66;;;14.86;12.33
80164;BME280;70071;55.130;61.268;2024-02-28T12:16:25;99908.53;;;13.56;11.79
80164;BME280;70071;55.130;61.268;2024-02-28T12:18:51;99997.09;;;15.30;11.78
80164;BME280;70071;55.130;61.268;2024-02-28T12:21:18;99953.69;;;15.06;11.43
80164;BME280;70071;55.130;61.268;2024-02-28T12:23:45;99974.19;;;14.84;11.87
80164;BME280;70071;55.130;61.268;2024-02-28T12:26:11;100001.50;;;15.59;11.56
80164;BME280;70071;55.130;61.268;2024-02-28T12:28:37;99990.41;;;15.62;11.57
80164;BME280;70071;55.130;61.268;2024-02-28T12:31:05;99986.72;;;14.54;11.64
80164;BME280;70071;55.130;61.268;2024-02-28T12:33:34;99977.88;;;15.20;11.51
80164;BME280;70071;55.130;61.268;2024-02-28T12:36:00;99975.38;;;16.11;11.40
80164;BME280;70071;55.130;61.268;2024-02-28T12:38:29;99995.69;;;15.56;11.76
80164;BME280;70071;55.130;61.268;2024-02-28T12:40:57;99946.78;;;14.46;11.81
80164;BME280;70071;55.130;61.268;2024-02-28T12:43:23;99984.97;;;14.91;11.81
80164;BME280;70071;55.130;61.268;2024-02-28T12:45:51;99968.41;;;14.51;11.59
80164;BME280;70071;55.130;61.268;2024-02-28T12:48:17;99967.28;;;14.90;12.23
80164;BME280;70071;55.130;61.268;2024-02-28T12:50:43;100000.66;;;14.79;12.25
80164;BME280;70071;55.130;61.268;2024-02-28T12:53:09;99953.41;;;14.50;12.20